createdAt,value
2022-08-05T00:02:27.686Z,92.00
2022-08-05T00:04:56.154Z,91.80
2022-08-05T00:08:00.620Z,91.80
2022-08-05T00:10:10.763Z,91.20
2022-08-05T00:12:55.888Z,92.00
2022-08-05T00:15:54.969Z,91.80
2022-08-05T00:18:10.250Z,92.40
2022-08-05T00:20:48.968Z,92.60
2022-08-05T00:23:15.751Z,92.60
2022-08-05T00:25:46.069Z,92.70
2022-08-05T00:28:13.673Z,93.10
2022-08-05T00:30:41.233Z,93.00
2022-08-05T00:34:42.333Z,92.70
2022-08-05T00:36:16.454Z,93.00
2022-08-05T00:38:44.686Z,93.30
2022-08-05T00:41:11.717Z,93.20
2022-08-05T00:43:46.958Z,92.90
2022-08-05T00:46:15.681Z,92.60
2022-08-05T00:48:51.279Z,93.10
2022-08-05T00:51:50.728Z,92.90
2022-08-05T00:54:09.409Z,92.80
2022-08-05T00:56:38.260Z,93.10
2022-08-05T00:59:13.777Z,92.40
2022-08-05T01:01:48.120Z,92.60
2022-08-05T01:04:15.846Z,93.10
2022-08-05T01:06:43.881Z,93.60
2022-08-05T01:09:19.836Z,93.60
2022-08-05T01:11:49.937Z,93.20
2022-08-05T01:14:34.949Z,93.30
2022-08-05T01:17:24.180Z,92.90
2022-08-05T01:20:13.585Z,92.60
2022-08-05T01:22:57.650Z,92.70
2022-08-05T01:25:43.342Z,93.10
2022-08-05T01:28:28.717Z,93.20
2022-08-05T01:31:02.928Z,93.10
2022-08-05T01:33:36.052Z,92.90
2022-08-05T01:36:12.704Z,93.60
2022-08-05T01:38:45.675Z,93.30
2022-08-05T01:41:18.387Z,92.90
2022-08-05T01:43:50.866Z,92.10
2022-08-05T01:46:42.903Z,92.40
2022-08-05T01:49:23.131Z,92.30
2022-08-05T01:51:58.278Z,92.40
2022-08-05T01:54:31.669Z,92.50
2022-08-05T01:58:10.036Z,92.40
2022-08-05T01:59:50.849Z,92.30
2022-08-05T02:02:20.198Z,92.80
2022-08-05T02:04:59.731Z,93.00
2022-08-05T02:07:26.996Z,93.70
2022-08-05T02:09:57.686Z,93.50
2022-08-05T02:12:46.826Z,93.30
2022-08-05T02:15:33.258Z,92.90
2022-08-05T02:18:33.085Z,92.40
2022-08-05T02:21:00.206Z,92.80
2022-08-05T02:23:33.784Z,92.30
2022-08-05T02:26:06.399Z,91.90
2022-08-05T02:28:41.708Z,91.80
2022-08-05T02:31:17.208Z,91.80
2022-08-05T02:33:57.755Z,91.90
2022-08-05T02:36:31.533Z,92.20
2022-08-05T02:39:00.001Z,92.40
2022-08-05T02:41:36.434Z,92.00
2022-08-05T02:44:17.028Z,92.70
2022-08-05T02:46:59.889Z,93.20
2022-08-05T02:49:36.915Z,92.30
2022-08-05T02:52:11.609Z,92.10
2022-08-05T02:54:50.578Z,92.40
2022-08-05T02:58:10.177Z,92.30
2022-08-05T03:00:07.649Z,92.40
2022-08-05T03:02:39.476Z,92.30
2022-08-05T03:05:10.250Z,93.30
2022-08-05T03:08:00.456Z,93.10
2022-08-05T03:10:26.618Z,92.70
2022-08-05T03:15:23.621Z,92.70
2022-08-05T03:17:54.108Z,92.60
2022-08-05T03:20:22.513Z,92.40
2022-08-05T03:22:51.438Z,92.30
2022-08-05T03:25:32.377Z,92.50
2022-08-05T03:28:08.706Z,92.20
2022-08-05T03:30:36.818Z,92.20
2022-08-05T03:33:06.256Z,92.90
2022-08-05T03:35:40.438Z,93.90
2022-08-05T03:38:10.743Z,93.40
2022-08-05T03:40:41.111Z,92.60
2022-08-05T03:43:59.004Z,92.10
2022-08-05T03:45:59.445Z,92.90
2022-08-05T03:48:30.502Z,92.40
2022-08-05T03:52:38.771Z,92.60
2022-08-05T03:55:54.699Z,92.70
2022-08-05T03:57:34.973Z,92.00
2022-08-05T04:00:15.492Z,92.40
2022-08-05T04:02:58.056Z,92.00
2022-08-05T04:05:33.590Z,91.80
2022-08-05T04:08:14.621Z,91.60
2022-08-05T04:11:01.339Z,91.40
2022-08-05T04:13:50.421Z,91.60
2022-08-05T04:16:16.478Z,91.50
2022-08-05T04:18:54.520Z,91.70
2022-08-05T04:22:10.119Z,91.70
2022-08-05T04:24:19.099Z,91.60
2022-08-05T04:26:46.695Z,92.10
2022-08-05T04:29:13.501Z,92.00
2022-08-05T04:31:41.192Z,91.90
2022-08-05T04:34:18.440Z,92.30
2022-08-05T04:36:50.204Z,92.50
2022-08-05T04:39:20.920Z,91.90
2022-08-05T04:41:51.020Z,93.10
2022-08-05T04:44:21.247Z,93.50
2022-08-05T04:46:57.278Z,92.90
2022-08-05T04:49:38.836Z,92.70
2022-08-05T04:52:13.588Z,92.80
2022-08-05T04:54:41.350Z,92.20
2022-08-05T04:57:08.088Z,92.40
2022-08-05T04:59:39.150Z,92.50
2022-08-05T05:02:37.020Z,92.00
2022-08-05T05:05:01.748Z,92.00
2022-08-05T05:07:31.979Z,92.70
2022-08-05T05:10:02.240Z,92.20
2022-08-05T05:12:29.793Z,92.50
2022-08-05T05:14:56.584Z,92.50
2022-08-05T05:17:24.815Z,92.20
2022-08-05T05:20:11.954Z,92.20
2022-08-05T05:22:40.782Z,92.20
2022-08-05T05:25:16.935Z,92.40
2022-08-05T05:27:48.554Z,92.80
2022-08-05T05:30:29.032Z,92.30
2022-08-05T05:33:00.888Z,92.20
2022-08-05T05:35:37.620Z,92.10
2022-08-05T05:38:09.114Z,92.10
2022-08-05T05:40:45.915Z,91.60
2022-08-05T05:43:16.332Z,91.40
2022-08-05T05:45:55.146Z,91.40
2022-08-05T05:48:27.299Z,91.60
2022-08-05T05:50:54.592Z,91.00
2022-08-05T05:53:22.421Z,90.40
2022-08-05T05:55:52.264Z,90.10
2022-08-05T05:58:30.138Z,89.90
2022-08-05T06:01:04.945Z,88.70
2022-08-05T06:03:53.610Z,88.20
2022-08-05T06:06:28.124Z,87.90
2022-08-05T06:08:57.704Z,87.60
2022-08-05T06:11:24.507Z,87.90
2022-08-05T06:13:53.994Z,86.80
2022-08-05T06:16:28.690Z,86.50
2022-08-05T06:18:59.996Z,85.90
2022-08-05T06:21:36.472Z,83.70
2022-08-05T06:24:11.721Z,85.30
2022-08-05T06:26:52.143Z,85.70
2022-08-05T06:29:42.860Z,85.90
2022-08-05T06:32:26.411Z,85.40
2022-08-05T06:34:57.008Z,85.50
2022-08-05T06:37:57.055Z,85.00
2022-08-05T06:40:13.703Z,85.80
2022-08-05T06:42:40.678Z,84.10
2022-08-05T06:45:09.384Z,86.00
2022-08-05T06:48:36.959Z,85.40
2022-08-05T06:50:24.895Z,84.40
2022-08-05T06:52:58.421Z,84.50
2022-08-05T06:55:25.703Z,84.30
2022-08-05T06:58:03.208Z,83.60
2022-08-05T07:00:41.117Z,82.00
2022-08-05T07:03:09.753Z,81.30
2022-08-05T07:05:37.860Z,81.90
2022-08-05T07:08:10.876Z,80.30
2022-08-05T07:10:39.202Z,77.60
2022-08-05T07:13:57.033Z,79.60
2022-08-05T07:17:58.903Z,78.40
2022-08-05T07:22:17.149Z,75.40
2022-08-05T07:24:52.419Z,72.40
2022-08-05T07:27:19.505Z,72.50
2022-08-05T07:30:27.528Z,71.40
2022-08-05T07:32:36.888Z,73.40
2022-08-05T07:36:02.996Z,71.70
2022-08-05T07:37:55.876Z,72.90
2022-08-05T07:40:31.835Z,70.40
2022-08-05T07:42:59.583Z,71.00
2022-08-05T07:45:57.613Z,70.60
2022-08-05T07:49:00.621Z,67.60
2022-08-05T07:51:08.606Z,67.50
2022-08-05T07:53:51.964Z,65.40
2022-08-05T07:57:02.785Z,66.70
2022-08-05T07:59:08.489Z,69.70
2022-08-05T08:01:35.593Z,66.90
2022-08-05T08:04:24.385Z,68.60
2022-08-05T08:07:07.391Z,67.00
2022-08-05T08:09:34.970Z,66.50
2022-08-05T08:12:09.786Z,67.60
2022-08-05T08:14:38.190Z,65.60
2022-08-05T08:17:15.929Z,65.70
2022-08-05T08:20:22.114Z,69.20
2022-08-05T08:22:32.318Z,69.90
2022-08-05T08:25:03.308Z,70.70
2022-08-05T08:27:39.891Z,65.70
2022-08-05T08:30:29.782Z,66.70
2022-08-05T08:32:58.553Z,66.50
2022-08-05T08:35:35.022Z,66.60
2022-08-05T08:38:07.888Z,70.70
2022-08-05T08:40:35.830Z,65.70
2022-08-05T08:44:57.894Z,67.50
2022-08-05T08:45:54.118Z,65.60
2022-08-05T08:48:42.938Z,71.70
2022-08-05T08:51:54.639Z,65.30
2022-08-05T08:53:55.930Z,67.30
2022-08-05T08:56:23.640Z,68.20
2022-08-05T08:58:54.531Z,65.10
2022-08-05T09:01:21.725Z,66.90
2022-08-05T09:03:55.696Z,67.50
2022-08-05T09:06:30.491Z,66.70
2022-08-05T09:09:01.911Z,67.60
2022-08-05T09:11:53.370Z,71.00
2022-08-05T09:14:58.532Z,64.80
2022-08-05T09:17:40.052Z,62.90
2022-08-05T09:20:02.821Z,63.20
2022-08-05T09:23:05.081Z,61.30
2022-08-05T09:26:01.346Z,62.50
2022-08-05T09:28:24.481Z,61.80
2022-08-05T09:31:43.959Z,62.60
2022-08-05T09:34:10.315Z,62.60
2022-08-05T09:36:56.401Z,64.70
2022-08-05T09:39:44.902Z,68.10
2022-08-05T09:42:23.960Z,71.00
2022-08-05T09:44:56.228Z,63.80
2022-08-05T09:47:35.206Z,70.70
2022-08-05T09:50:18.018Z,67.10
2022-08-05T09:53:26.086Z,63.00
2022-08-05T09:56:12.710Z,64.60
2022-08-05T09:58:41.845Z,73.40
2022-08-05T10:01:15.181Z,66.10
2022-08-05T10:04:00.395Z,66.20
2022-08-05T10:06:28.210Z,70.80
2022-08-05T10:08:55.867Z,69.80
2022-08-05T10:11:23.076Z,66.40
2022-08-05T10:13:54.608Z,69.50
2022-08-05T10:16:52.346Z,64.50
2022-08-05T10:19:23.481Z,58.30
2022-08-05T10:21:59.840Z,64.60
2022-08-05T10:24:27.256Z,64.90
2022-08-05T10:27:00.304Z,67.30
2022-08-05T10:30:06.784Z,64.70
2022-08-05T10:32:54.070Z,59.40
2022-08-05T10:35:04.006Z,66.80
2022-08-05T10:37:44.375Z,60.10
2022-08-05T10:40:44.929Z,53.00
2022-08-05T10:43:31.077Z,62.40
2022-08-05T10:46:07.114Z,57.40
2022-08-05T10:48:56.814Z,56.90
2022-08-05T10:51:57.272Z,63.00
2022-08-05T10:55:04.683Z,66.20
2022-08-05T10:57:33.830Z,57.50
2022-08-05T11:00:41.996Z,59.40
2022-08-05T11:03:24.342Z,65.60
2022-08-05T11:06:08.411Z,59.60
2022-08-05T11:08:37.443Z,55.10
2022-08-05T11:11:44.434Z,58.10
2022-08-05T11:14:57.778Z,54.00
2022-08-05T11:17:58.769Z,62.50
2022-08-05T11:20:34.148Z,67.10
2022-08-05T11:23:08.822Z,56.60
2022-08-05T11:26:04.283Z,70.90
2022-08-05T11:28:36.049Z,70.80
2022-08-05T11:31:06.581Z,54.50
2022-08-05T11:33:48.983Z,66.30
2022-08-05T11:36:34.173Z,57.30
2022-08-05T11:39:08.501Z,56.80
2022-08-05T11:41:57.850Z,55.20
2022-08-05T11:44:53.262Z,57.90
2022-08-05T11:47:49.412Z,69.60
2022-08-05T11:50:14.271Z,72.00
2022-08-05T11:52:41.724Z,70.10
2022-08-05T11:55:12.725Z,58.40
2022-08-05T11:58:10.968Z,62.10
2022-08-05T12:00:37.992Z,69.90
2022-08-05T12:03:28.467Z,60.30
2022-08-05T12:06:06.125Z,72.60
2022-08-05T12:08:50.025Z,72.30
2022-08-05T12:11:28.445Z,73.50
2022-08-05T12:14:08.490Z,69.40
2022-08-05T12:16:45.356Z,72.70
2022-08-05T12:20:17.247Z,65.20
2022-08-05T12:22:01.225Z,65.40
2022-08-05T12:24:28.040Z,62.40
2022-08-05T12:26:54.937Z,64.80
2022-08-05T12:29:23.955Z,63.60
2022-08-05T12:31:57.347Z,68.50
2022-08-05T12:34:32.686Z,67.20
2022-08-05T12:37:07.411Z,62.00
2022-08-05T12:39:38.513Z,63.50
2022-08-05T12:42:16.052Z,63.70
2022-08-05T12:44:44.920Z,62.80
2022-08-05T12:47:13.632Z,64.00
2022-08-05T12:50:04.747Z,62.80
2022-08-05T12:52:39.407Z,63.40
2022-08-05T12:55:23.501Z,64.10
2022-08-05T12:58:38.415Z,65.40
2022-08-05T13:02:03.099Z,66.40
2022-08-05T13:03:32.296Z,68.20
2022-08-05T13:06:00.866Z,71.10
2022-08-05T13:08:32.358Z,66.00
2022-08-05T13:11:01.176Z,66.70
2022-08-05T13:14:06.134Z,68.30
2022-08-05T13:16:17.103Z,66.30
2022-08-05T13:18:55.037Z,65.00
2022-08-05T13:21:27.976Z,65.30
2022-08-05T13:24:05.446Z,68.30
2022-08-05T13:26:32.379Z,66.20
2022-08-05T13:29:00.636Z,67.30
2022-08-05T13:31:34.006Z,73.90
2022-08-05T13:34:22.810Z,64.70
2022-08-05T13:36:53.043Z,64.50
2022-08-05T13:40:13.016Z,64.20
2022-08-05T13:42:07.016Z,72.00
2022-08-05T13:44:34.737Z,63.80
2022-08-05T13:47:08.782Z,64.90
2022-08-05T13:49:36.390Z,70.30
2022-08-05T13:52:17.543Z,66.60
2022-08-05T13:54:53.234Z,68.50
2022-08-05T13:57:21.419Z,63.20
2022-08-05T13:59:57.107Z,66.40
2022-08-05T14:02:26.645Z,57.70
2022-08-05T14:05:12.010Z,62.60
2022-08-05T14:07:59.965Z,58.30
2022-08-05T14:10:31.450Z,59.50
2022-08-05T14:12:58.796Z,63.70
2022-08-05T14:16:09.325Z,59.60
2022-08-05T14:18:14.777Z,65.10
2022-08-05T14:20:46.858Z,57.90
2022-08-05T14:23:23.470Z,64.80
2022-08-05T14:25:54.587Z,63.90
2022-08-05T14:28:26.847Z,58.50
2022-08-05T14:30:54.703Z,59.10
2022-08-05T14:33:23.903Z,61.00
2022-08-05T14:35:54.358Z,64.00
2022-08-05T14:38:32.169Z,59.70
2022-08-05T14:41:06.275Z,64.10
2022-08-05T14:44:01.538Z,57.80
2022-08-05T14:46:28.760Z,63.70
2022-08-05T14:49:06.635Z,60.90
2022-08-05T14:51:38.785Z,64.80
2022-08-05T14:54:27.841Z,64.70
2022-08-05T14:56:58.444Z,66.90
2022-08-05T14:59:29.803Z,67.00
2022-08-05T15:02:04.002Z,66.70
2022-08-05T15:04:50.905Z,67.30
2022-08-05T15:08:08.612Z,68.50
2022-08-05T15:10:04.589Z,67.30
2022-08-05T15:12:58.005Z,66.40
2022-08-05T15:15:55.341Z,66.90
2022-08-05T15:18:11.402Z,69.30
2022-08-05T15:20:41.565Z,68.70
2022-08-05T15:23:12.063Z,69.80
2022-08-05T15:25:41.011Z,69.50
2022-08-05T15:28:27.272Z,67.90
2022-08-05T15:30:55.240Z,66.60
2022-08-05T15:34:05.345Z,67.50
2022-08-05T15:36:17.862Z,66.20
2022-08-05T15:40:41.593Z,64.80
2022-08-05T15:41:58.353Z,64.50
2022-08-05T15:44:25.592Z,66.80
2022-08-05T15:46:54.568Z,67.20
2022-08-05T15:49:40.829Z,63.40
2022-08-05T15:52:13.349Z,64.30
2022-08-05T15:54:43.479Z,61.80
2022-08-05T15:57:10.793Z,62.90
2022-08-05T15:59:38.205Z,65.30
2022-08-05T16:02:05.902Z,65.80
2022-08-05T16:04:42.365Z,65.20
2022-08-05T16:07:10.574Z,64.50
2022-08-05T16:09:37.839Z,63.80
2022-08-05T16:12:09.427Z,63.20
2022-08-05T16:14:38.217Z,65.10
2022-08-05T16:17:05.201Z,62.00
2022-08-05T16:20:02.909Z,64.30
2022-08-05T16:22:24.107Z,65.30
2022-08-05T16:24:54.415Z,64.60
2022-08-05T16:27:47.179Z,64.00
2022-08-05T16:30:23.247Z,66.40
2022-08-05T16:32:52.701Z,65.10
2022-08-05T16:35:19.520Z,61.50
2022-08-05T16:38:15.678Z,65.00
2022-08-05T16:40:41.784Z,66.20
2022-08-05T16:43:08.635Z,59.70
2022-08-05T16:46:06.776Z,64.10
2022-08-05T16:48:25.750Z,63.90
2022-08-05T16:50:53.301Z,60.40
2022-08-05T16:53:22.885Z,61.50
2022-08-05T16:55:59.427Z,58.90
2022-08-05T16:58:26.719Z,64.70
2022-08-05T17:00:53.571Z,65.00
2022-08-05T17:03:21.182Z,63.40
2022-08-05T17:05:54.310Z,60.60
2022-08-05T17:08:36.265Z,62.60
2022-08-05T17:11:17.000Z,59.50
2022-08-05T17:13:44.811Z,63.80
2022-08-05T17:16:29.918Z,63.80
2022-08-05T17:18:59.076Z,62.40
2022-08-05T17:21:35.696Z,64.00
2022-08-05T17:24:30.375Z,66.80
2022-08-05T17:26:58.622Z,63.30
2022-08-05T17:29:33.213Z,62.20
2022-08-05T17:32:08.303Z,63.40
2022-08-05T17:34:35.530Z,67.60
2022-08-05T17:37:02.356Z,63.50
2022-08-05T17:39:33.574Z,63.40
2022-08-05T17:42:18.316Z,65.30
2022-08-05T17:44:50.290Z,62.40
2022-08-05T17:47:21.976Z,62.70
2022-08-05T17:50:04.264Z,67.40
2022-08-05T17:52:53.190Z,63.60
2022-08-05T17:55:22.412Z,65.10
2022-08-05T17:57:50.288Z,68.00
2022-08-05T18:00:18.655Z,65.50
2022-08-05T18:02:47.269Z,66.00
2022-08-05T18:05:16.987Z,66.20
2022-08-05T18:07:44.693Z,66.80
2022-08-05T18:10:20.431Z,67.30
2022-08-05T18:12:48.936Z,68.70
2022-08-05T18:15:15.798Z,62.40
2022-08-05T18:18:01.414Z,67.20
2022-08-05T18:20:31.944Z,67.20
2022-08-05T18:23:11.154Z,69.10
2022-08-05T18:25:45.533Z,63.20
2022-08-05T18:28:16.497Z,65.90
2022-08-05T18:30:50.833Z,68.60
2022-08-05T18:33:22.931Z,68.30
2022-08-05T18:36:03.605Z,67.60
2022-08-05T18:38:36.725Z,67.50
2022-08-05T18:41:56.551Z,67.00
2022-08-05T18:43:54.591Z,67.50
2022-08-05T18:46:21.440Z,67.60
2022-08-05T18:48:53.645Z,60.60
2022-08-05T18:52:04.848Z,65.10
2022-08-05T18:54:28.342Z,66.70
2022-08-05T18:56:58.157Z,62.70
2022-08-05T18:59:42.694Z,66.80
2022-08-05T19:02:26.820Z,62.70
2022-08-05T19:05:02.419Z,67.60
2022-08-05T19:07:46.331Z,65.30
2022-08-05T19:10:14.772Z,69.50
2022-08-05T19:12:43.239Z,65.40
2022-08-05T19:15:57.844Z,65.20
2022-08-05T19:18:08.826Z,67.80
2022-08-05T19:20:41.383Z,68.60
2022-08-05T19:24:03.904Z,67.50
2022-08-05T19:26:01.053Z,69.20
2022-08-05T19:28:28.997Z,70.10
2022-08-05T19:30:55.994Z,66.00
2022-08-05T19:33:35.107Z,70.90
2022-08-05T19:36:03.908Z,68.70
2022-08-05T19:38:35.697Z,67.80
2022-08-05T19:41:06.727Z,72.20
2022-08-05T19:44:05.403Z,70.00
2022-08-05T19:46:29.196Z,69.00
2022-08-05T19:49:03.307Z,68.60
2022-08-05T19:52:04.750Z,68.50
2022-08-05T19:54:26.955Z,67.50
2022-08-05T19:57:02.237Z,69.40
2022-08-05T20:00:00.658Z,69.40
2022-08-05T20:02:18.746Z,69.30
2022-08-05T20:04:48.231Z,69.40
2022-08-05T20:07:15.441Z,69.20
2022-08-05T20:09:54.709Z,69.00
2022-08-05T20:12:24.758Z,69.40
2022-08-05T20:14:53.013Z,69.60
2022-08-05T20:17:23.588Z,69.20
2022-08-05T20:19:57.034Z,69.40
2022-08-05T20:22:27.121Z,69.40
2022-08-05T20:24:55.304Z,69.70
2022-08-05T20:27:26.482Z,69.70
2022-08-05T20:29:57.586Z,69.90
2022-08-05T20:32:26.795Z,69.70
2022-08-05T20:34:54.078Z,69.90
2022-08-05T20:38:04.532Z,69.70
2022-08-05T20:40:08.683Z,69.80
2022-08-05T20:42:35.639Z,69.80
2022-08-05T20:45:02.855Z,69.10
2022-08-05T20:47:31.851Z,67.30
2022-08-05T20:49:59.578Z,69.50
2022-08-05T20:52:28.696Z,69.30
2022-08-05T20:55:54.236Z,71.70
2022-08-05T20:57:44.473Z,70.90
2022-08-05T21:00:34.886Z,72.40
2022-08-05T21:03:06.745Z,72.50
2022-08-05T21:05:48.149Z,72.10
2022-08-05T21:08:42.515Z,72.10
2022-08-05T21:11:12.104Z,72.10
2022-08-05T21:13:55.747Z,72.30
2022-08-05T21:16:29.713Z,72.10
2022-08-05T21:18:59.866Z,72.20
2022-08-05T21:21:43.827Z,71.60
2022-08-05T21:24:15.330Z,71.20
2022-08-05T21:26:47.151Z,71.00
2022-08-05T21:29:20.617Z,71.00
2022-08-05T21:31:53.129Z,71.10
2022-08-05T21:34:20.930Z,71.30
2022-08-05T21:36:49.202Z,71.10
2022-08-05T21:39:16.985Z,71.10
2022-08-05T21:42:01.284Z,70.90
2022-08-05T21:44:31.006Z,70.90
2022-08-05T21:46:58.859Z,70.80
2022-08-05T21:49:48.528Z,70.20
2022-08-05T21:52:16.412Z,69.80
2022-08-05T21:54:51.230Z,69.50
2022-08-05T21:57:31.365Z,69.40
2022-08-05T22:00:11.088Z,69.30
2022-08-05T22:02:39.263Z,69.90
2022-08-05T22:05:09.240Z,69.20
2022-08-05T22:07:40.392Z,69.10
2022-08-05T22:10:25.588Z,69.20
2022-08-05T22:12:57.494Z,69.20
2022-08-05T22:16:02.071Z,69.10
2022-08-05T22:18:14.449Z,69.20
2022-08-05T22:20:41.790Z,69.10
2022-08-05T22:24:02.095Z,69.00
2022-08-05T22:26:35.463Z,69.00
2022-08-05T22:29:02.801Z,69.00
2022-08-05T22:31:30.748Z,68.90
2022-08-05T22:34:12.900Z,68.80
2022-08-05T22:36:52.369Z,68.90
2022-08-05T22:39:21.597Z,68.80
2022-08-05T22:42:10.197Z,68.70
2022-08-05T22:44:35.337Z,68.70
2022-08-05T22:47:05.799Z,68.60
2022-08-05T22:50:20.226Z,68.60
2022-08-05T22:52:30.409Z,68.50
2022-08-05T22:55:01.218Z,68.40
2022-08-05T22:57:34.054Z,68.50
2022-08-05T23:00:05.528Z,68.50
2022-08-05T23:02:35.520Z,68.50
2022-08-05T23:05:17.479Z,68.70
2022-08-05T23:07:56.024Z,68.60
2022-08-05T23:10:23.611Z,68.50
2022-08-05T23:12:54.454Z,68.50
2022-08-05T23:15:28.858Z,68.50
2022-08-05T23:17:59.711Z,68.50
2022-08-05T23:20:28.719Z,68.50
2022-08-05T23:22:55.918Z,68.50
2022-08-05T23:25:52.197Z,68.40
2022-08-05T23:28:10.981Z,68.50
2022-08-05T23:30:39.718Z,68.30
2022-08-05T23:33:07.492Z,68.30
2022-08-05T23:35:50.536Z,68.20
2022-08-05T23:38:18.049Z,68.30
2022-08-05T23:40:50.185Z,68.30
2022-08-05T23:43:25.472Z,68.20
2022-08-05T23:46:05.039Z,68.30
2022-08-05T23:49:00.746Z,68.20
2022-08-05T23:51:53.596Z,68.80
2022-08-05T23:54:34.036Z,68.20
2022-08-05T23:57:06.411Z,68.30
